sensor_id;sensor_type;location;lat;lon;timestamp;pressure;altitude;pressure_sealevel;temperature;humidity
70445;BME280;57902;49.638;11.070;2023-01-28T00:01:20;98887.19;;;0.09;96.21
70445;BME280;57902;49.638;11.070;2023-01-28T00:03:50;98878.72;;;0.09;97.00
70445;BME280;57902;49.638;11.070;2023-01-28T00:06:17;98892.16;;;0.05;97.22
70445;BME280;57902;49.638;11.070;2023-01-28T00:08:44;98886.28;;;0.07;97.31
70445;BME280;57902;49.638;11.070;2023-01-28T00:11:12;98878.84;;;0.13;96.68
70445;BME280;57902;49.638;11.070;2023-01-28T00:13:39;98880.41;;;0.08;97.40
70445;BME280;57902;49.638;11.070;2023-01-28T00:16:06;98874.50;;;0.09;97.73
70445;BME280;57902;49.638;11.070;2023-01-28T00:18:36;98873.63;;;0.09;98.00
70445;BME280;57902;49.638;11.070;2023-01-28T00:21:06;98880.38;;;0.07;98.18
70445;BME280;57902;49.638;11.070;2023-01-28T00:23:35;98877.03;;;0.09;98.34
70445;BME280;57902;49.638;11.070;2023-01-28T00:26:05;98873.69;;;0.10;98.21
70445;BME280;57902;49.638;11.070;2023-01-28T00:28:33;98876.97;;;0.06;98.40
70445;BME280;57902;49.638;11.070;2023-01-28T00:31:08;98874.47;;;0.08;98.31
70445;BME280;57902;49.638;11.070;2023-01-28T00:33:36;98869.38;;;0.06;98.41
70445;BME280;57902;49.638;11.070;2023-01-28T00:36:03;98876.97;;;0.06;98.48
70445;BME280;57902;49.638;11.070;2023-01-28T00:38:32;98876.06;;;0.04;99.08
70445;BME280;57902;49.638;11.070;2023-01-28T00:41:13;98868.50;;;0.06;98.92
70445;BME280;57902;49.638;11.070;2023-01-28T00:43:41;98877.84;;;0.08;99.11
70445;BME280;57902;49.638;11.070;2023-01-28T00:46:14;98871.09;;;0.09;98.87
70445;BME280;57902;49.638;11.070;2023-01-28T00:48:42;98874.56;;;0.12;98.78
70445;BME280;57902;49.638;11.070;2023-01-28T00:51:10;98881.38;;;0.13;98.71
70445;BME280;57902;49.638;11.070;2023-01-28T00:53:38;98881.22;;;0.07;98.70
70445;BME280;57902;49.638;11.070;2023-01-28T00:56:06;98884.78;;;0.15;98.57
70445;BME280;57902;49.638;11.070;2023-01-28T00:58:33;98889.78;;;0.12;99.04
70445;BME280;57902;49.638;11.070;2023-01-28T01:01:14;98885.56;;;0.13;98.47
70445;BME280;57902;49.638;11.070;2023-01-28T01:03:41;98887.38;;;0.19;98.09
70445;BME280;57902;49.638;11.070;2023-01-28T01:06:09;98890.81;;;0.21;98.04
70445;BME280;57902;49.638;11.070;2023-01-28T01:08:36;98888.34;;;0.24;97.46
70445;BME280;57902;49.638;11.070;2023-01-28T01:11:06;98891.75;;;0.26;97.41
70445;BME280;57902;49.638;11.070;2023-01-28T01:13:33;98890.97;;;0.28;96.63
70445;BME280;57902;49.638;11.070;2023-01-28T01:16:05;98896.06;;;0.28;96.68
70445;BME280;57902;49.638;11.070;2023-01-28T01:18:36;98893.63;;;0.34;96.03
70445;BME280;57902;49.638;11.070;2023-01-28T01:21:08;98885.44;;;0.46;95.23
70445;BME280;57902;49.638;11.070;2023-01-28T01:23:35;98893.91;;;0.48;94.74
70445;BME280;57902;49.638;11.070;2023-01-28T01:26:03;98892.09;;;0.41;95.03
70445;BME280;57902;49.638;11.070;2023-01-28T01:28:30;98892.75;;;0.32;96.01
70445;BME280;57902;49.638;11.070;2023-01-28T01:31:19;98894.38;;;0.30;96.06
70445;BME280;57902;49.638;11.070;2023-01-28T01:33:47;98902.13;;;0.37;95.35
70445;BME280;57902;49.638;11.070;2023-01-28T01:36:15;98900.44;;;0.36;95.89
70445;BME280;57902;49.638;11.070;2023-01-28T01:38:43;98899.50;;;0.32;96.20
70445;BME280;57902;49.638;11.070;2023-01-28T01:41:22;98895.16;;;0.26;96.45
70445;BME280;57902;49.638;11.070;2023-01-28T01:44:00;98901.88;;;0.24;96.78
70445;BME280;57902;49.638;11.070;2023-01-28T01:46:46;98899.38;;;0.26;97.01
70445;BME280;57902;49.638;11.070;2023-01-28T01:49:20;98911.22;;;0.27;97.07
70445;BME280;57902;49.638;11.070;2023-01-28T01:51:50;98914.63;;;0.27;96.96
70445;BME280;57902;49.638;11.070;2023-01-28T01:54:21;98917.19;;;0.29;97.14
70445;BME280;57902;49.638;11.070;2023-01-28T01:56:50;98913.75;;;0.25;96.93
70445;BME280;57902;49.638;11.070;2023-01-28T01:59:22;98915.31;;;0.20;97.33
70445;BME280;57902;49.638;11.070;2023-01-28T02:01:51;98913.66;;;0.21;97.52
70445;BME280;57902;49.638;11.070;2023-01-28T02:04:22;98916.25;;;0.24;97.50
70445;BME280;57902;49.638;11.070;2023-01-28T02:06:50;98910.22;;;0.20;97.36
70445;BME280;57902;49.638;11.070;2023-01-28T02:09:25;98906.03;;;0.21;97.58
70445;BME280;57902;49.638;11.070;2023-01-28T02:11:55;98917.06;;;0.23;97.65
70445;BME280;57902;49.638;11.070;2023-01-28T02:14:24;98916.22;;;0.22;97.87
70445;BME280;57902;49.638;11.070;2023-01-28T02:16:58;98915.41;;;0.25;97.34
70445;BME280;57902;49.638;11.070;2023-01-28T02:19:31;98915.34;;;0.22;97.31
70445;BME280;57902;49.638;11.070;2023-01-28T02:22:12;98909.34;;;0.18;97.47
70445;BME280;57902;49.638;11.070;2023-01-28T02:30:21;98903.69;;;0.30;95.87
70445;BME280;57902;49.638;11.070;2023-01-28T02:33:00;98907.19;;;0.37;94.98
70445;BME280;57902;49.638;11.070;2023-01-28T02:35:46;98907.13;;;0.33;95.84
70445;BME280;57902;49.638;11.070;2023-01-28T02:38:17;98906.13;;;0.25;96.35
70445;BME280;57902;49.638;11.070;2023-01-28T02:40:52;98913.69;;;0.24;96.54
70445;BME280;57902;49.638;11.070;2023-01-28T02:43:43;98911.00;;;0.17;96.92
70445;BME280;57902;49.638;11.070;2023-01-28T02:49:27;98923.84;;;0.24;96.26
70445;BME280;57902;49.638;11.070;2023-01-28T02:52:31;98922.19;;;0.26;96.01
70445;BME280;57902;49.638;11.070;2023-01-28T02:58:25;98928.88;;;0.22;96.69
70445;BME280;57902;49.638;11.070;2023-01-28T03:03:58;98928.03;;;0.23;96.73
70445;BME280;57902;49.638;11.070;2023-01-28T03:06:34;98931.53;;;0.27;96.21
70445;BME280;57902;49.638;11.070;2023-01-28T03:09:06;98923.09;;;0.29;96.00
70445;BME280;57902;49.638;11.070;2023-01-28T03:11:56;98928.97;;;0.27;96.08
70445;BME280;57902;49.638;11.070;2023-01-28T03:14:45;98927.34;;;0.30;95.91
70445;BME280;57902;49.638;11.070;2023-01-28T03:20:24;98940.09;;;0.33;95.39
70445;BME280;57902;49.638;11.070;2023-01-28T03:23:15;98943.38;;;0.29;96.32
70445;BME280;57902;49.638;11.070;2023-01-28T03:26:06;98935.75;;;0.28;96.30
70445;BME280;57902;49.638;11.070;2023-01-28T03:28:53;98939.19;;;0.30;96.44
70445;BME280;57902;49.638;11.070;2023-01-28T03:31:40;98952.56;;;0.23;96.70
70445;BME280;57902;49.638;11.070;2023-01-28T03:34:26;98941.75;;;0.31;95.81
70445;BME280;57902;49.638;11.070;2023-01-28T03:37:12;98951.97;;;0.34;95.71
70445;BME280;57902;49.638;11.070;2023-01-28T03:39:40;98952.78;;;0.33;96.10
70445;BME280;57902;49.638;11.070;2023-01-28T03:42:09;98957.72;;;0.27;96.58
70445;BME280;57902;49.638;11.070;2023-01-28T03:44:37;98956.91;;;0.28;96.49
70445;BME280;57902;49.638;11.070;2023-01-28T03:47:24;98952.63;;;0.26;96.96
70445;BME280;57902;49.638;11.070;2023-01-28T03:49:52;98959.47;;;0.30;96.70
70445;BME280;57902;49.638;11.070;2023-01-28T03:52:21;98961.06;;;0.26;97.04
70445;BME280;57902;49.638;11.070;2023-01-28T03:54:48;98965.25;;;0.24;97.73
70445;BME280;57902;49.638;11.070;2023-01-28T03:57:16;98958.75;;;0.36;96.72
70445;BME280;57902;49.638;11.070;2023-01-28T03:59:43;98960.09;;;0.20;98.57
70445;BME280;57902;49.638;11.070;2023-01-28T04:02:11;98957.63;;;0.23;98.13
70445;BME280;57902;49.638;11.070;2023-01-28T04:04:38;98963.75;;;0.31;98.18
70445;BME280;57902;49.638;11.070;2023-01-28T04:07:05;98963.59;;;0.26;98.46
70445;BME280;57902;49.638;11.070;2023-01-28T04:09:34;98972.84;;;0.23;99.19
70445;BME280;57902;49.638;11.070;2023-01-28T04:12:04;98969.34;;;0.19;99.24
70445;BME280;57902;49.638;11.070;2023-01-28T04:14:31;98968.56;;;0.22;99.18
70445;BME280;57902;49.638;11.070;2023-01-28T04:16:58;98969.34;;;0.19;99.61
70445;BME280;57902;49.638;11.070;2023-01-28T04:19:25;98974.50;;;0.21;99.40
70445;BME280;57902;49.638;11.070;2023-01-28T04:21:51;98978.66;;;0.19;99.77
70445;BME280;57902;49.638;11.070;2023-01-28T04:24:22;98978.53;;;0.12;100.00
70445;BME280;57902;49.638;11.070;2023-01-28T04:26:49;98977.72;;;0.13;100.00
70445;BME280;57902;49.638;11.070;2023-01-28T04:29:15;98984.28;;;0.07;100.00
70445;BME280;57902;49.638;11.070;2023-01-28T04:31:41;98986.00;;;0.06;100.00
70445;BME280;57902;49.638;11.070;2023-01-28T04:34:08;98990.22;;;0.07;100.00
70445;BME280;57902;49.638;11.070;2023-01-28T04:36:35;98988.56;;;0.08;100.00
70445;BME280;57902;49.638;11.070;2023-01-28T04:39:02;98982.59;;;0.07;100.00
70445;BME280;57902;49.638;11.070;2023-01-28T04:41:29;98977.53;;;0.07;100.00
70445;BME280;57902;49.638;11.070;2023-01-28T04:43:55;98983.41;;;0.05;100.00
70445;BME280;57902;49.638;11.070;2023-01-28T04:46:22;98980.88;;;0.05;100.00
70445;BME280;57902;49.638;11.070;2023-01-28T04:48:48;98982.53;;;0.04;100.00
70445;BME280;57902;49.638;11.070;2023-01-28T04:51:15;98987.66;;;0.06;100.00
70445;BME280;57902;49.638;11.070;2023-01-28T04:53:41;98986.00;;;0.06;100.00
70445;BME280;57902;49.638;11.070;2023-01-28T04:56:08;98987.69;;;0.07;100.00
70445;BME280;57902;49.638;11.070;2023-01-28T04:58:34;98987.69;;;0.07;100.00
70445;BME280;57902;49.638;11.070;2023-01-28T05:01:01;98988.56;;;0.08;100.00
70445;BME280;57902;49.638;11.070;2023-01-28T05:03:27;98986.03;;;0.08;100.00
70445;BME280;57902;49.638;11.070;2023-01-28T05:05:54;98989.34;;;0.05;100.00
70445;BME280;57902;49.638;11.070;2023-01-28T05:08:21;98984.28;;;0.07;100.00
70445;BME280;57902;49.638;11.070;2023-01-28T05:10:47;98990.25;;;0.09;100.00
70445;BME280;57902;49.638;11.070;2023-01-28T05:13:14;98984.38;;;0.10;100.00
70445;BME280;57902;49.638;11.070;2023-01-28T05:15:40;98985.25;;;0.10;100.00
70445;BME280;57902;49.638;11.070;2023-01-28T05:18:07;98990.31;;;0.10;100.00
70445;BME280;57902;49.638;11.070;2023-01-28T05:20:34;98983.53;;;0.09;100.00
70445;BME280;57902;49.638;11.070;2023-01-28T05:23:00;98987.84;;;0.13;100.00
70445;BME280;57902;49.638;11.070;2023-01-28T05:25:26;98988.59;;;0.09;100.00
70445;BME280;57902;49.638;11.070;2023-01-28T05:27:53;98990.22;;;0.07;100.00
70445;BME280;57902;49.638;11.070;2023-01-28T05:30:20;98989.28;;;0.04;100.00
70445;BME280;57902;49.638;11.070;2023-01-28T05:32:47;98991.84;;;0.04;100.00
70445;BME280;57902;49.638;11.070;2023-01-28T05:35:13;98992.69;;;0.04;100.00
70445;BME280;57902;49.638;11.070;2023-01-28T05:37:40;98992.69;;;0.04;100.00
70445;BME280;57902;49.638;11.070;2023-01-28T05:40:07;98988.44;;;0.03;100.00
70445;BME280;57902;49.638;11.070;2023-01-28T05:42:34;98999.28;;;-0.03;100.00
70445;BME280;57902;49.638;11.070;2023-01-28T05:45:01;99007.75;;;-0.02;100.00
70445;BME280;57902;49.638;11.070;2023-01-28T05:47:27;99001.06;;;0.00;100.00
70445;BME280;57902;49.638;11.070;2023-01-28T05:49:53;99008.59;;;-0.02;100.00
70445;BME280;57902;49.638;11.070;2023-01-28T05:52:20;99004.41;;;-0.01;100.00
70445;BME280;57902;49.638;11.070;2023-01-28T05:54:46;99002.75;;;0.01;100.00
70445;BME280;57902;49.638;11.070;2023-01-28T05:57:13;99002.78;;;0.03;100.00
70445;BME280;57902;49.638;11.070;2023-01-28T05:59:40;99005.34;;;0.04;100.00
70445;BME280;57902;49.638;11.070;2023-01-28T06:02:06;99008.81;;;0.06;100.00
70445;BME280;57902;49.638;11.070;2023-01-28T06:04:33;99011.47;;;0.12;100.00
70445;BME280;57902;49.638;11.070;2023-01-28T06:06:59;99013.16;;;0.12;100.00
70445;BME280;57902;49.638;11.070;2023-01-28T06:09:25;99008.94;;;0.12;100.00
70445;BME280;57902;49.638;11.070;2023-01-28T06:11:52;99008.06;;;0.10;100.00
70445;BME280;57902;49.638;11.070;2023-01-28T06:14:18;99012.25;;;0.10;100.00
70445;BME280;57902;49.638;11.070;2023-01-28T06:16:45;99016.47;;;0.09;100.00
70445;BME280;57902;49.638;11.070;2023-01-28T06:19:11;99018.97;;;0.08;100.00
70445;BME280;57902;49.638;11.070;2023-01-28T06:21:38;99024.00;;;0.06;100.00
70445;BME280;57902;49.638;11.070;2023-01-28T06:24:04;99028.28;;;0.09;100.00
70445;BME280;57902;49.638;11.070;2023-01-28T06:26:31;99030.81;;;0.09;100.00
70445;BME280;57902;49.638;11.070;2023-01-28T06:28:57;99028.19;;;0.06;100.00
70445;BME280;57902;49.638;11.070;2023-01-28T06:31:24;99031.69;;;0.09;100.00
70445;BME280;57902;49.638;11.070;2023-01-28T06:33:50;99040.06;;;0.07;100.00
70445;BME280;57902;49.638;11.070;2023-01-28T06:36:17;99043.41;;;0.06;100.00
70445;BME280;57902;49.638;11.070;2023-01-28T06:38:43;99044.22;;;0.03;100.00
70445;BME280;57902;49.638;11.070;2023-01-28T06:41:10;99045.19;;;0.08;100.00
70445;BME280;57902;49.638;11.070;2023-01-28T06:43:36;99048.56;;;0.09;100.00
70445;BME280;57902;49.638;11.070;2023-01-28T06:46:03;99056.91;;;0.03;100.00
70445;BME280;57902;49.638;11.070;2023-01-28T06:48:29;99060.25;;;0.02;100.00
70445;BME280;57902;49.638;11.070;2023-01-28T06:50:56;99060.16;;;-0.01;100.00
70445;BME280;57902;49.638;11.070;2023-01-28T06:53:23;99065.31;;;0.02;100.00
70445;BME280;57902;49.638;11.070;2023-01-28T06:55:49;99065.31;;;0.02;100.00
70445;BME280;57902;49.638;11.070;2023-01-28T06:58:16;99066.97;;;0.00;100.00
70445;BME280;57902;49.638;11.070;2023-01-28T07:00:42;99070.31;;;-0.01;100.00
70445;BME280;57902;49.638;11.070;2023-01-28T07:03:09;99073.69;;;-0.01;100.00
70445;BME280;57902;49.638;11.070;2023-01-28T07:05:35;99072.09;;;0.03;100.00
70445;BME280;57902;49.638;11.070;2023-01-28T07:08:02;99073.88;;;0.07;100.00
70445;BME280;57902;49.638;11.070;2023-01-28T07:10:29;99073.84;;;0.06;100.00
70445;BME280;57902;49.638;11.070;2023-01-28T07:12:56;99080.53;;;0.02;100.00
70445;BME280;57902;49.638;11.070;2023-01-28T07:15:22;99078.69;;;-0.04;100.00
70445;BME280;57902;49.638;11.070;2023-01-28T07:17:49;99078.72;;;-0.02;100.00
70445;BME280;57902;49.638;11.070;2023-01-28T07:20:15;99085.59;;;0.02;100.00
70445;BME280;57902;49.638;11.070;2023-01-28T07:22:43;99081.31;;;0.01;100.00
70445;BME280;57902;49.638;11.070;2023-01-28T07:25:11;99084.63;;;-0.02;100.00
70445;BME280;57902;49.638;11.070;2023-01-28T07:27:38;99086.44;;;0.03;100.00
70445;BME280;57902;49.638;11.070;2023-01-28T07:30:05;99080.53;;;0.02;100.00
70445;BME280;57902;49.638;11.070;2023-01-28T07:32:32;99083.19;;;0.08;100.00
70445;BME280;57902;49.638;11.070;2023-01-28T07:34:58;99089.09;;;0.07;100.00
70445;BME280;57902;49.638;11.070;2023-01-28T07:37:25;99085.88;;;0.14;100.00
70445;BME280;57902;49.638;11.070;2023-01-28T07:39:51;99084.22;;;0.15;100.00
70445;BME280;57902;49.638;11.070;2023-01-28T07:42:18;99085.06;;;0.15;100.00
70445;BME280;57902;49.638;11.070;2023-01-28T07:44:44;99085.97;;;0.17;100.00
70445;BME280;57902;49.638;11.070;2023-01-28T07:47:10;99085.06;;;0.15;100.00
70445;BME280;57902;49.638;11.070;2023-01-28T07:49:37;99089.66;;;0.30;99.29
70445;BME280;57902;49.638;11.070;2023-01-28T07:52:06;99088.88;;;0.33;98.56
70445;BME280;57902;49.638;11.070;2023-01-28T07:54:33;99095.81;;;0.40;97.33
70445;BME280;57902;49.638;11.070;2023-01-28T07:56:59;99090.81;;;0.43;96.68
70445;BME280;57902;49.638;11.070;2023-01-28T07:59:26;99091.88;;;0.51;95.76
70445;BME280;57902;49.638;11.070;2023-01-28T08:01:52;99088.69;;;0.60;95.58
70445;BME280;57902;49.638;11.070;2023-01-28T08:04:20;99093.72;;;0.59;95.22
70445;BME280;57902;49.638;11.070;2023-01-28T08:06:47;99089.66;;;0.65;94.48
70445;BME280;57902;49.638;11.070;2023-01-28T08:09:13;99096.38;;;0.63;93.85
70445;BME280;57902;49.638;11.070;2023-01-28T08:11:40;99102.16;;;0.58;94.24
70445;BME280;57902;49.638;11.070;2023-01-28T08:14:09;99096.25;;;0.59;94.10
70445;BME280;57902;49.638;11.070;2023-01-28T08:16:35;99099.84;;;0.67;94.10
70445;BME280;57902;49.638;11.070;2023-01-28T08:19:02;99099.22;;;0.77;92.97
70445;BME280;57902;49.638;11.070;2023-01-28T08:21:29;99096.84;;;0.85;92.17
70445;BME280;57902;49.638;11.070;2023-01-28T08:23:55;99107.81;;;0.82;91.83
70445;BME280;57902;49.638;11.070;2023-01-28T08:26:22;99101.06;;;0.84;92.15
70445;BME280;57902;49.638;11.070;2023-01-28T08:28:49;99103.63;;;0.84;91.68
70445;BME280;57902;49.638;11.070;2023-01-28T08:31:17;99101.28;;;0.94;90.45
70445;BME280;57902;49.638;11.070;2023-01-28T08:33:43;99112.31;;;0.94;89.60
70445;BME280;57902;49.638;11.070;2023-01-28T08:36:10;99108.88;;;0.94;89.89
70445;BME280;57902;49.638;11.070;2023-01-28T08:38:36;99116.31;;;0.84;90.17
70445;BME280;57902;49.638;11.070;2023-01-28T08:41:03;99121.25;;;0.78;91.20
70445;BME280;57902;49.638;11.070;2023-01-28T08:43:29;99122.22;;;0.85;90.69
70445;BME280;57902;49.638;11.070;2023-01-28T08:45:56;99120.22;;;0.72;91.39
70445;BME280;57902;49.638;11.070;2023-01-28T08:48:22;99117.59;;;0.67;91.14
70445;BME280;57902;49.638;11.070;2023-01-28T08:50:49;99118.63;;;0.75;91.21
70445;BME280;57902;49.638;11.070;2023-01-28T08:53:18;99129.47;;;0.68;90.96
70445;BME280;57902;49.638;11.070;2023-01-28T08:55:45;99123.09;;;0.85;89.55
70445;BME280;57902;49.638;11.070;2023-01-28T08:58:14;99117.56;;;1.03;87.50
70445;BME280;57902;49.638;11.070;2023-01-28T09:00:41;99122.50;;;0.96;88.40
70445;BME280;57902;49.638;11.070;2023-01-28T09:03:08;99117.38;;;0.94;88.88
70445;BME280;57902;49.638;11.070;2023-01-28T09:05:36;99130.56;;;0.79;90.06
70445;BME280;57902;49.638;11.070;2023-01-28T09:08:05;99122.91;;;0.78;91.22
70445;BME280;57902;49.638;11.070;2023-01-28T09:10:32;99128.03;;;0.79;90.63
70445;BME280;57902;49.638;11.070;2023-01-28T09:13:01;99131.09;;;0.66;91.40
70445;BME280;57902;49.638;11.070;2023-01-28T09:15:29;99138.91;;;0.74;88.63
70445;BME280;57902;49.638;11.070;2023-01-28T09:17:56;99132.84;;;0.68;87.28
70445;BME280;57902;49.638;11.070;2023-01-28T09:20:24;99137.41;;;0.82;86.66
70445;BME280;57902;49.638;11.070;2023-01-28T09:22:51;99143.56;;;0.92;85.30
70445;BME280;57902;49.638;11.070;2023-01-28T09:25:18;99147.31;;;1.08;85.48
70445;BME280;57902;49.638;11.070;2023-01-28T09:27:44;99145.72;;;1.14;84.68
70445;BME280;57902;49.638;11.070;2023-01-28T09:30:11;99156.34;;;1.34;84.02
70445;BME280;57902;49.638;11.070;2023-01-28T09:32:39;99153.78;;;1.34;83.58
70445;BME280;57902;49.638;11.070;2023-01-28T09:35:06;99155.31;;;1.26;83.80
70445;BME280;57902;49.638;11.070;2023-01-28T09:37:32;99155.66;;;1.42;83.47
70445;BME280;57902;49.638;11.070;2023-01-28T09:39:59;99155.91;;;1.55;82.17
70445;BME280;57902;49.638;11.070;2023-01-28T09:42:58;99163.22;;;1.38;81.31
70445;BME280;57902;49.638;11.070;2023-01-28T09:47:58;99167.00;;;1.57;79.85
70445;BME280;57902;49.638;11.070;2023-01-28T09:50:35;99175.13;;;1.41;80.48
70445;BME280;57902;49.638;11.070;2023-01-28T09:53:09;99176.94;;;1.48;80.84
70445;BME280;57902;49.638;11.070;2023-01-28T09:55:40;99173.53;;;1.46;81.63
70445;BME280;57902;49.638;11.070;2023-01-28T09:58:11;99181.84;;;1.39;81.08
70445;BME280;57902;49.638;11.070;2023-01-28T10:00:49;99170.34;;;1.17;81.47
70445;BME280;57902;49.638;11.070;2023-01-28T10:06:27;99174.72;;;1.22;81.45
70445;BME280;57902;49.638;11.070;2023-01-28T10:09:26;99174.50;;;1.13;81.58
70445;BME280;57902;49.638;11.070;2023-01-28T10:17:37;99174.50;;;1.13;81.28
70445;BME280;57902;49.638;11.070;2023-01-28T10:22:51;99165.75;;;1.38;80.89
70445;BME280;57902;49.638;11.070;2023-01-28T10:25:27;99159.44;;;1.61;79.28
70445;BME280;57902;49.638;11.070;2023-01-28T10:27:55;99155.59;;;1.81;77.84
70445;BME280;57902;49.638;11.070;2023-01-28T10:30:28;99140.28;;;1.78;77.90
70445;BME280;57902;49.638;11.070;2023-01-28T10:33:03;99150.97;;;1.60;78.07
70445;BME280;57902;49.638;11.070;2023-01-28T10:35:38;99156.88;;;1.61;79.50
70445;BME280;57902;49.638;11.070;2023-01-28T10:38:07;99153.31;;;1.52;79.25
70445;BME280;57902;49.638;11.070;2023-01-28T10:40:34;99147.41;;;1.53;79.50
70445;BME280;57902;49.638;11.070;2023-01-28T10:43:01;99158.22;;;1.43;79.90
70445;BME280;57902;49.638;11.070;2023-01-28T10:45:36;99158.47;;;1.55;79.45
70445;BME280;57902;49.638;11.070;2023-01-28T10:50:52;99171.38;;;1.65;78.93
70445;BME280;57902;49.638;11.070;2023-01-28T10:53:19;99173.84;;;1.62;78.18
70445;BME280;57902;49.638;11.070;2023-01-28T10:56:06;99168.28;;;1.38;79.23
70445;BME280;57902;49.638;11.070;2023-01-28T10:58:36;99168.25;;;1.37;80.07
70445;BME280;57902;49.638;11.070;2023-01-28T11:01:12;99169.94;;;1.38;79.71
70445;BME280;57902;49.638;11.070;2023-01-28T11:03:50;99167.56;;;1.44;79.16
70445;BME280;57902;49.638;11.070;2023-01-28T11:06:27;99173.25;;;1.32;79.54
70445;BME280;57902;49.638;11.070;2023-01-28T11:08:54;99170.50;;;1.64;78.40
70445;BME280;57902;49.638;11.070;2023-01-28T11:11:23;99175.59;;;1.25;79.75
70445;BME280;57902;49.638;11.070;2023-01-28T11:13:52;99170.97;;;1.07;79.77
70445;BME280;57902;49.638;11.070;2023-01-28T11:16:19;99169.41;;;1.12;79.84
70445;BME280;57902;49.638;11.070;2023-01-28T11:21:23;99174.44;;;1.10;80.21
70445;BME280;57902;49.638;11.070;2023-01-28T11:23:57;99175.59;;;1.25;80.27
70445;BME280;57902;49.638;11.070;2023-01-28T11:26:36;99173.97;;;1.27;78.74
70445;BME280;57902;49.638;11.070;2023-01-28T11:29:04;99176.63;;;1.33;79.25
70445;BME280;57902;49.638;11.070;2023-01-28T11:31:42;99172.91;;;1.58;77.71
70445;BME280;57902;49.638;11.070;2023-01-28T11:34:15;99167.34;;;1.76;76.39
70445;BME280;57902;49.638;11.070;2023-01-28T11:36:50;99176.72;;;1.79;75.80
70445;BME280;57902;49.638;11.070;2023-01-28T11:39:23;99174.16;;;1.77;76.66
70445;BME280;57902;49.638;11.070;2023-01-28T11:41:52;99175.09;;;1.81;76.24
70445;BME280;57902;49.638;11.070;2023-01-28T11:44:26;99173.28;;;1.75;76.72
70445;BME280;57902;49.638;11.070;2023-01-28T11:47:17;99169.75;;;1.68;76.32
70445;BME280;57902;49.638;11.070;2023-01-28T11:52:46;99173.09;;;1.26;76.85
70445;BME280;57902;49.638;11.070;2023-01-28T12:01:32;99176.91;;;1.47;77.19
70445;BME280;57902;49.638;11.070;2023-01-28T12:04:09;99159.97;;;1.46;76.92
70445;BME280;57902;49.638;11.070;2023-01-28T12:15:20;99165.31;;;1.18;78.00
70445;BME280;57902;49.638;11.070;2023-01-28T12:18:13;99173.88;;;1.22;78.54
70445;BME280;57902;49.638;11.070;2023-01-28T12:20:51;99172.81;;;1.14;78.68
70445;BME280;57902;49.638;11.070;2023-01-28T12:23:37;99173.50;;;1.07;78.88
70445;BME280;57902;49.638;11.070;2023-01-28T12:26:09;99163.94;;;0.95;79.30
70445;BME280;57902;49.638;11.070;2023-01-28T12:28:54;99172.59;;;1.03;78.69
70445;BME280;57902;49.638;11.070;2023-01-28T12:37:18;99160.28;;;0.83;80.14
70445;BME280;57902;49.638;11.070;2023-01-28T12:42:49;99162.09;;;0.89;80.18
70445;BME280;57902;49.638;11.070;2023-01-28T12:45:38;99156.31;;;0.95;80.18
70445;BME280;57902;49.638;11.070;2023-01-28T12:48:13;99155.38;;;0.90;79.59
70445;BME280;57902;49.638;11.070;2023-01-28T12:50:47;99154.78;;;1.01;79.47
70445;BME280;57902;49.638;11.070;2023-01-28T12:53:35;99149.91;;;1.11;78.92
70445;BME280;57902;49.638;11.070;2023-01-28T12:56:08;99152.28;;;1.03;79.19
70445;BME280;57902;49.638;11.070;2023-01-28T12:58:57;99148.25;;;1.13;77.94
70445;BME280;57902;49.638;11.070;2023-01-28T13:01:29;99146.66;;;1.16;78.10
70445;BME280;57902;49.638;11.070;2023-01-28T13:04:12;99142.50;;;1.21;77.60
70445;BME280;57902;49.638;11.070;2023-01-28T13:06:58;99150.53;;;1.00;78.45
70445;BME280;57902;49.638;11.070;2023-01-28T13:09:28;99152.97;;;0.96;78.45
70445;BME280;57902;49.638;11.070;2023-01-28T13:11:57;99153.78;;;0.95;78.56
70445;BME280;57902;49.638;11.070;2023-01-28T13:14:28;99159.13;;;1.07;77.58
70445;BME280;57902;49.638;11.070;2023-01-28T13:17:07;99158.16;;;1.02;77.32
70445;BME280;57902;49.638;11.070;2023-01-28T13:19:41;99158.34;;;0.73;78.84
70445;BME280;57902;49.638;11.070;2023-01-28T13:22:34;99163.69;;;0.84;78.98
70445;BME280;57902;49.638;11.070;2023-01-28T13:25:25;99167.91;;;0.85;78.75
70445;BME280;57902;49.638;11.070;2023-01-28T13:28:03;99165.59;;;0.93;78.94
70445;BME280;57902;49.638;11.070;2023-01-28T13:30:32;99171.25;;;0.82;79.19
70445;BME280;57902;49.638;11.070;2023-01-28T13:33:05;99168.56;;;0.76;79.95
70445;BME280;57902;49.638;11.070;2023-01-28T13:35:34;99165.03;;;0.69;79.84
70445;BME280;57902;49.638;11.070;2023-01-28T13:38:07;99161.31;;;0.57;80.55
70445;BME280;57902;49.638;11.070;2023-01-28T13:40:34;99174.31;;;0.69;80.15
70445;BME280;57902;49.638;11.070;2023-01-28T13:43:23;99169.00;;;0.60;80.78
70445;BME280;57902;49.638;11.070;2023-01-28T13:45:58;99170.63;;;0.56;81.32
70445;BME280;57902;49.638;11.070;2023-01-28T13:48:43;99167.22;;;0.56;81.46
70445;BME280;57902;49.638;11.070;2023-01-28T13:51:26;99175.28;;;0.74;80.56
70445;BME280;57902;49.638;11.070;2023-01-28T13:53:58;99175.19;;;0.69;80.81
70445;BME280;57902;49.638;11.070;2023-01-28T13:56:30;99175.84;;;0.62;81.37
70445;BME280;57902;49.638;11.070;2023-01-28T14:07:37;99188.34;;;0.55;81.73
70445;BME280;57902;49.638;11.070;2023-01-28T14:10:27;99190.41;;;0.36;82.42
70445;BME280;57902;49.638;11.070;2023-01-28T14:18:58;99205.97;;;0.16;83.15
70445;BME280;57902;49.638;11.070;2023-01-28T14:21:27;99212.66;;;0.14;83.39
70445;BME280;57902;49.638;11.070;2023-01-28T14:23:56;99218.34;;;0.06;83.70
70445;BME280;57902;49.638;11.070;2023-01-28T14:26:37;99222.56;;;0.05;83.72
70445;BME280;57902;49.638;11.070;2023-01-28T14:29:25;99223.56;;;0.10;83.27
70445;BME280;57902;49.638;11.070;2023-01-28T14:31:57;99230.16;;;0.05;84.22
70445;BME280;57902;49.638;11.070;2023-01-28T14:34:34;99231.50;;;-0.08;83.51
70445;BME280;57902;49.638;11.070;2023-01-28T14:37:08;99228.75;;;-0.15;83.79